sensor_id;sensor_type;location;lat;lon;timestamp;temperature;humidity
47382;DHT22;33128;51.580;5.170;2024-01-30T00:02:11;12.00;99.90
47382;DHT22;33128;51.580;5.170;2024-01-30T00:04:37;12.00;99.90
47382;DHT22;33128;51.580;5.170;2024-01-30T00:07:02;11.90;99.90
47382;DHT22;33128;51.580;5.170;2024-01-30T00:09:28;11.80;99.90
47382;DHT22;33128;51.580;5.170;2024-01-30T00:11:57;11.80;99.90
47382;DHT22;33128;51.580;5.170;2024-01-30T00:14:29;11.70;99.90
47382;DHT22;33128;51.580;5.170;2024-01-30T00:16:54;11.80;99.90
47382;DHT22;33128;51.580;5.170;2024-01-30T00:19:20;11.70;99.90
47382;DHT22;33128;51.580;5.170;2024-01-30T00:21:45;11.60;99.90
47382;DHT22;33128;51.580;5.170;2024-01-30T00:24:11;11.50;99.90
47382;DHT22;33128;51.580;5.170;2024-01-30T00:26:37;11.70;99.90
47382;DHT22;33128;51.580;5.170;2024-01-30T00:29:02;11.70;99.90
47382;DHT22;33128;51.580;5.170;2024-01-30T00:31:28;11.70;99.90
47382;DHT22;33128;51.580;5.170;2024-01-30T00:33:54;11.80;99.90
47382;DHT22;33128;51.580;5.170;2024-01-30T00:36:19;11.60;99.90
47382;DHT22;33128;51.580;5.170;2024-01-30T00:38:45;11.50;99.90
47382;DHT22;33128;51.580;5.170;2024-01-30T00:41:11;11.40;99.90
47382;DHT22;33128;51.580;5.170;2024-01-30T00:43:37;11.40;99.90
47382;DHT22;33128;51.580;5.170;2024-01-30T00:46:05;11.30;99.90
47382;DHT22;33128;51.580;5.170;2024-01-30T00:48:30;11.20;99.90
47382;DHT22;33128;51.580;5.170;2024-01-30T00:50:56;11.20;99.90
47382;DHT22;33128;51.580;5.170;2024-01-30T00:53:22;11.30;99.90
47382;DHT22;33128;51.580;5.170;2024-01-30T00:55:47;11.30;99.90
47382;DHT22;33128;51.580;5.170;2024-01-30T00:58:13;11.30;99.90
47382;DHT22;33128;51.580;5.170;2024-01-30T01:00:39;11.30;99.90
47382;DHT22;33128;51.580;5.170;2024-01-30T01:03:05;11.30;99.90
47382;DHT22;33128;51.580;5.170;2024-01-30T01:08:20;11.30;99.90
47382;DHT22;33128;51.580;5.170;2024-01-30T01:10:45;11.30;99.90
47382;DHT22;33128;51.580;5.170;2024-01-30T01:13:11;11.30;99.90
47382;DHT22;33128;51.580;5.170;2024-01-30T01:15:40;11.30;99.90
47382;DHT22;33128;51.580;5.170;2024-01-30T01:18:05;11.40;99.90
47382;DHT22;33128;51.580;5.170;2024-01-30T01:20:31;11.40;99.90
47382;DHT22;33128;51.580;5.170;2024-01-30T01:22:56;11.40;99.90
47382;DHT22;33128;51.580;5.170;2024-01-30T01:25:22;11.40;99.90
47382;DHT22;33128;51.580;5.170;2024-01-30T01:27:48;11.50;99.90
47382;DHT22;33128;51.580;5.170;2024-01-30T01:30:17;11.50;99.90
47382;DHT22;33128;51.580;5.170;2024-01-30T01:32:51;11.50;99.90
47382;DHT22;33128;51.580;5.170;2024-01-30T01:35:23;11.40;99.90
47382;DHT22;33128;51.580;5.170;2024-01-30T01:37:53;11.30;99.90
47382;DHT22;33128;51.580;5.170;2024-01-30T01:40:26;11.40;99.90
47382;DHT22;33128;51.580;5.170;2024-01-30T01:42:53;11.50;99.90
47382;DHT22;33128;51.580;5.170;2024-01-30T01:45:20;11.50;99.90
47382;DHT22;33128;51.580;5.170;2024-01-30T01:47:48;11.40;99.90
47382;DHT22;33128;51.580;5.170;2024-01-30T01:50:16;11.30;99.90
47382;DHT22;33128;51.580;5.170;2024-01-30T01:52:48;11.30;99.90
47382;DHT22;33128;51.580;5.170;2024-01-30T01:55:18;11.20;99.90
47382;DHT22;33128;51.580;5.170;2024-01-30T01:57:50;11.20;99.90
47382;DHT22;33128;51.580;5.170;2024-01-30T02:00:16;11.40;99.90
47382;DHT22;33128;51.580;5.170;2024-01-30T02:02:42;11.40;99.90
47382;DHT22;33128;51.580;5.170;2024-01-30T02:05:09;11.30;99.90
47382;DHT22;33128;51.580;5.170;2024-01-30T02:07:34;11.20;99.90
47382;DHT22;33128;51.580;5.170;2024-01-30T02:10:00;11.20;99.90
47382;DHT22;33128;51.580;5.170;2024-01-30T02:12:25;11.30;99.90
47382;DHT22;33128;51.580;5.170;2024-01-30T02:14:51;11.30;99.90
47382;DHT22;33128;51.580;5.170;2024-01-30T02:17:16;11.30;99.90
47382;DHT22;33128;51.580;5.170;2024-01-30T02:19:42;11.50;99.90
47382;DHT22;33128;51.580;5.170;2024-01-30T02:22:08;11.50;99.90
47382;DHT22;33128;51.580;5.170;2024-01-30T02:24:34;11.50;99.90
47382;DHT22;33128;51.580;5.170;2024-01-30T02:27:00;11.50;99.90
47382;DHT22;33128;51.580;5.170;2024-01-30T02:29:25;11.40;99.90
47382;DHT22;33128;51.580;5.170;2024-01-30T02:31:51;11.20;99.90
47382;DHT22;33128;51.580;5.170;2024-01-30T02:34:19;11.30;99.90
47382;DHT22;33128;51.580;5.170;2024-01-30T02:36:45;11.10;99.90
47382;DHT22;33128;51.580;5.170;2024-01-30T02:39:11;11.20;99.90
47382;DHT22;33128;51.580;5.170;2024-01-30T02:41:40;11.30;99.90
47382;DHT22;33128;51.580;5.170;2024-01-30T02:44:05;11.30;99.90
47382;DHT22;33128;51.580;5.170;2024-01-30T02:46:34;11.20;99.90
47382;DHT22;33128;51.580;5.170;2024-01-30T02:48:59;11.20;99.90
47382;DHT22;33128;51.580;5.170;2024-01-30T02:51:25;11.20;99.90
47382;DHT22;33128;51.580;5.170;2024-01-30T02:53:50;11.50;99.90
47382;DHT22;33128;51.580;5.170;2024-01-30T02:56:16;11.70;99.90
47382;DHT22;33128;51.580;5.170;2024-01-30T02:58:42;11.80;99.90
47382;DHT22;33128;51.580;5.170;2024-01-30T03:01:07;11.80;99.90
47382;DHT22;33128;51.580;5.170;2024-01-30T03:03:33;11.90;99.90
47382;DHT22;33128;51.580;5.170;2024-01-30T03:06:01;12.00;99.90
47382;DHT22;33128;51.580;5.170;2024-01-30T03:08:27;11.80;99.90
47382;DHT22;33128;51.580;5.170;2024-01-30T03:10:56;11.70;99.90
47382;DHT22;33128;51.580;5.170;2024-01-30T03:13:21;11.70;99.90
47382;DHT22;33128;51.580;5.170;2024-01-30T03:15:50;11.70;99.90
47382;DHT22;33128;51.580;5.170;2024-01-30T03:18:16;11.60;99.90
47382;DHT22;33128;51.580;5.170;2024-01-30T03:20:41;11.70;99.90
47382;DHT22;33128;51.580;5.170;2024-01-30T03:23:07;11.80;99.90
47382;DHT22;33128;51.580;5.170;2024-01-30T03:25:33;12.00;99.90
47382;DHT22;33128;51.580;5.170;2024-01-30T03:27:58;12.00;99.90
47382;DHT22;33128;51.580;5.170;2024-01-30T03:30:24;12.00;99.90
47382;DHT22;33128;51.580;5.170;2024-01-30T03:32:49;12.10;99.90
47382;DHT22;33128;51.580;5.170;2024-01-30T03:35:15;12.20;99.90
47382;DHT22;33128;51.580;5.170;2024-01-30T03:37:41;12.00;99.90
47382;DHT22;33128;51.580;5.170;2024-01-30T03:40:07;11.90;99.90
47382;DHT22;33128;51.580;5.170;2024-01-30T03:42:33;11.80;99.90
47382;DHT22;33128;51.580;5.170;2024-01-30T03:45:01;11.80;99.90
47382;DHT22;33128;51.580;5.170;2024-01-30T03:47:26;11.80;99.90
47382;DHT22;33128;51.580;5.170;2024-01-30T03:49:52;11.80;99.90
47382;DHT22;33128;51.580;5.170;2024-01-30T03:52:18;11.80;99.90
47382;DHT22;33128;51.580;5.170;2024-01-30T03:54:43;11.90;99.90
47382;DHT22;33128;51.580;5.170;2024-01-30T03:57:09;12.00;99.90
47382;DHT22;33128;51.580;5.170;2024-01-30T03:59:37;11.80;99.90
47382;DHT22;33128;51.580;5.170;2024-01-30T04:02:03;11.90;99.90
47382;DHT22;33128;51.580;5.170;2024-01-30T04:04:29;11.80;99.90
47382;DHT22;33128;51.580;5.170;2024-01-30T04:06:55;11.60;99.90
47382;DHT22;33128;51.580;5.170;2024-01-30T04:09:20;11.60;99.90
47382;DHT22;33128;51.580;5.170;2024-01-30T04:11:46;11.70;99.90
47382;DHT22;33128;51.580;5.170;2024-01-30T04:14:11;11.70;99.90
47382;DHT22;33128;51.580;5.170;2024-01-30T04:16:40;11.70;99.90
47382;DHT22;33128;51.580;5.170;2024-01-30T04:19:05;11.70;99.90
47382;DHT22;33128;51.580;5.170;2024-01-30T04:21:31;11.70;99.90
47382;DHT22;33128;51.580;5.170;2024-01-30T04:23:56;11.70;99.90
47382;DHT22;33128;51.580;5.170;2024-01-30T04:26:22;11.90;99.90
47382;DHT22;33128;51.580;5.170;2024-01-30T04:28:50;12.10;99.90
47382;DHT22;33128;51.580;5.170;2024-01-30T04:31:16;12.10;99.90
47382;DHT22;33128;51.580;5.170;2024-01-30T04:33:41;12.10;99.90
47382;DHT22;33128;51.580;5.170;2024-01-30T04:36:08;12.00;99.90
47382;DHT22;33128;51.580;5.170;2024-01-30T04:38:35;11.90;99.90
47382;DHT22;33128;51.580;5.170;2024-01-30T04:41:01;11.90;99.90
47382;DHT22;33128;51.580;5.170;2024-01-30T04:43:26;11.80;99.90
47382;DHT22;33128;51.580;5.170;2024-01-30T04:45:52;11.80;99.90
47382;DHT22;33128;51.580;5.170;2024-01-30T04:48:18;12.00;99.90
47382;DHT22;33128;51.580;5.170;2024-01-30T04:50:44;11.90;99.90
47382;DHT22;33128;51.580;5.170;2024-01-30T04:53:09;11.80;99.90
47382;DHT22;33128;51.580;5.170;2024-01-30T04:55:35;11.80;99.90
47382;DHT22;33128;51.580;5.170;2024-01-30T04:58:01;11.70;99.90
47382;DHT22;33128;51.580;5.170;2024-01-30T05:00:27;11.70;99.90
47382;DHT22;33128;51.580;5.170;2024-01-30T05:02:54;11.70;99.90
47382;DHT22;33128;51.580;5.170;2024-01-30T05:05:20;11.80;99.90
47382;DHT22;33128;51.580;5.170;2024-01-30T05:07:47;11.90;99.90
47382;DHT22;33128;51.580;5.170;2024-01-30T05:10:12;12.10;99.90
47382;DHT22;33128;51.580;5.170;2024-01-30T05:12:39;12.20;99.90
47382;DHT22;33128;51.580;5.170;2024-01-30T05:15:07;12.20;99.90
47382;DHT22;33128;51.580;5.170;2024-01-30T05:17:33;12.10;99.90
47382;DHT22;33128;51.580;5.170;2024-01-30T05:19:59;12.00;99.90
47382;DHT22;33128;51.580;5.170;2024-01-30T05:22:27;12.00;99.90
47382;DHT22;33128;51.580;5.170;2024-01-30T05:24:52;12.10;99.90
47382;DHT22;33128;51.580;5.170;2024-01-30T05:27:18;12.00;99.90
47382;DHT22;33128;51.580;5.170;2024-01-30T05:29:43;12.00;99.90
47382;DHT22;33128;51.580;5.170;2024-01-30T05:32:09;11.90;99.90
47382;DHT22;33128;51.580;5.170;2024-01-30T05:34:36;12.00;99.90
47382;DHT22;33128;51.580;5.170;2024-01-30T05:37:04;12.00;99.90
47382;DHT22;33128;51.580;5.170;2024-01-30T05:39:30;12.10;99.90
47382;DHT22;33128;51.580;5.170;2024-01-30T05:41:58;12.20;99.90
47382;DHT22;33128;51.580;5.170;2024-01-30T05:44:23;12.20;99.90
47382;DHT22;33128;51.580;5.170;2024-01-30T05:46:49;12.20;99.90
47382;DHT22;33128;51.580;5.170;2024-01-30T05:49:15;12.20;99.90
47382;DHT22;33128;51.580;5.170;2024-01-30T05:51:40;12.30;99.90
47382;DHT22;33128;51.580;5.170;2024-01-30T05:54:08;12.40;99.90
47382;DHT22;33128;51.580;5.170;2024-01-30T05:56:34;12.30;99.90
47382;DHT22;33128;51.580;5.170;2024-01-30T05:59:00;12.20;99.90
47382;DHT22;33128;51.580;5.170;2024-01-30T06:01:25;12.20;99.90
47382;DHT22;33128;51.580;5.170;2024-01-30T06:03:51;12.20;99.90
47382;DHT22;33128;51.580;5.170;2024-01-30T06:06:16;12.20;99.90
47382;DHT22;33128;51.580;5.170;2024-01-30T06:08:42;12.10;99.90
47382;DHT22;33128;51.580;5.170;2024-01-30T06:11:10;12.20;99.90
47382;DHT22;33128;51.580;5.170;2024-01-30T06:13:36;12.20;99.90
47382;DHT22;33128;51.580;5.170;2024-01-30T06:16:11;12.10;99.90
47382;DHT22;33128;51.580;5.170;2024-01-30T06:18:42;12.00;99.90
47382;DHT22;33128;51.580;5.170;2024-01-30T06:21:14;11.90;99.90
47382;DHT22;33128;51.580;5.170;2024-01-30T06:23:39;11.80;99.90
47382;DHT22;33128;51.580;5.170;2024-01-30T06:26:07;11.90;99.90
47382;DHT22;33128;51.580;5.170;2024-01-30T06:28:32;11.80;99.90
47382;DHT22;33128;51.580;5.170;2024-01-30T06:30:58;12.00;99.90
47382;DHT22;33128;51.580;5.170;2024-01-30T06:33:26;12.10;99.90
47382;DHT22;33128;51.580;5.170;2024-01-30T06:35:51;12.20;99.90
47382;DHT22;33128;51.580;5.170;2024-01-30T06:38:17;12.20;99.90
47382;DHT22;33128;51.580;5.170;2024-01-30T06:40:42;12.10;99.90
47382;DHT22;33128;51.580;5.170;2024-01-30T06:43:08;12.20;99.90
47382;DHT22;33128;51.580;5.170;2024-01-30T06:45:34;12.20;99.90
47382;DHT22;33128;51.580;5.170;2024-01-30T06:48:00;12.10;99.90
47382;DHT22;33128;51.580;5.170;2024-01-30T06:50:26;12.20;99.90
47382;DHT22;33128;51.580;5.170;2024-01-30T06:52:51;12.40;99.90
47382;DHT22;33128;51.580;5.170;2024-01-30T06:55:18;12.80;99.90
47382;DHT22;33128;51.580;5.170;2024-01-30T06:57:43;13.20;99.90
47382;DHT22;33128;51.580;5.170;2024-01-30T07:00:09;13.40;99.90
47382;DHT22;33128;51.580;5.170;2024-01-30T07:02:35;13.50;99.90
47382;DHT22;33128;51.580;5.170;2024-01-30T07:05:02;13.70;99.90
47382;DHT22;33128;51.580;5.170;2024-01-30T07:07:28;13.80;99.90
47382;DHT22;33128;51.580;5.170;2024-01-30T07:09:54;13.90;99.90
47382;DHT22;33128;51.580;5.170;2024-01-30T07:12:22;14.00;99.90
47382;DHT22;33128;51.580;5.170;2024-01-30T07:14:48;14.00;99.90
47382;DHT22;33128;51.580;5.170;2024-01-30T07:17:17;14.00;99.90
47382;DHT22;33128;51.580;5.170;2024-01-30T07:19:45;14.00;99.90
47382;DHT22;33128;51.580;5.170;2024-01-30T07:22:17;14.10;99.90
47382;DHT22;33128;51.580;5.170;2024-01-30T07:24:45;14.10;99.90
47382;DHT22;33128;51.580;5.170;2024-01-30T07:27:14;14.20;99.90
47382;DHT22;33128;51.580;5.170;2024-01-30T07:29:40;14.20;99.90
47382;DHT22;33128;51.580;5.170;2024-01-30T07:32:08;14.30;99.90
47382;DHT22;33128;51.580;5.170;2024-01-30T07:34:34;14.40;99.90
47382;DHT22;33128;51.580;5.170;2024-01-30T07:37:02;14.50;99.90
47382;DHT22;33128;51.580;5.170;2024-01-30T07:39:28;14.50;99.90
47382;DHT22;33128;51.580;5.170;2024-01-30T07:41:54;14.50;99.90
47382;DHT22;33128;51.580;5.170;2024-01-30T07:44:20;14.50;99.90
47382;DHT22;33128;51.580;5.170;2024-01-30T07:46:46;14.50;99.90
47382;DHT22;33128;51.580;5.170;2024-01-30T07:49:12;14.60;99.90
47382;DHT22;33128;51.580;5.170;2024-01-30T07:51:39;14.50;99.90
47382;DHT22;33128;51.580;5.170;2024-01-30T07:54:17;14.60;99.90
47382;DHT22;33128;51.580;5.170;2024-01-30T07:56:43;14.60;99.90
47382;DHT22;33128;51.580;5.170;2024-01-30T07:59:11;14.60;99.90
47382;DHT22;33128;51.580;5.170;2024-01-30T08:01:40;14.60;99.90
47382;DHT22;33128;51.580;5.170;2024-01-30T08:04:06;14.60;99.90
47382;DHT22;33128;51.580;5.170;2024-01-30T08:06:32;14.60;99.90
47382;DHT22;33128;51.580;5.170;2024-01-30T08:08:58;14.60;99.90
47382;DHT22;33128;51.580;5.170;2024-01-30T08:11:24;14.60;99.90
47382;DHT22;33128;51.580;5.170;2024-01-30T08:13:52;14.60;99.90
47382;DHT22;33128;51.580;5.170;2024-01-30T08:16:18;14.70;99.90
47382;DHT22;33128;51.580;5.170;2024-01-30T08:18:44;14.70;99.90
47382;DHT22;33128;51.580;5.170;2024-01-30T08:21:09;14.70;99.90
47382;DHT22;33128;51.580;5.170;2024-01-30T08:23:35;14.70;99.90
47382;DHT22;33128;51.580;5.170;2024-01-30T08:26:00;14.70;99.90
47382;DHT22;33128;51.580;5.170;2024-01-30T08:28:26;14.80;99.90
47382;DHT22;33128;51.580;5.170;2024-01-30T08:30:52;14.80;99.90
47382;DHT22;33128;51.580;5.170;2024-01-30T08:33:18;14.80;99.90
47382;DHT22;33128;51.580;5.170;2024-01-30T08:35:43;14.80;99.90
47382;DHT22;33128;51.580;5.170;2024-01-30T08:38:09;14.90;99.90
47382;DHT22;33128;51.580;5.170;2024-01-30T08:40:35;14.90;99.90
47382;DHT22;33128;51.580;5.170;2024-01-30T08:43:00;14.90;99.90
47382;DHT22;33128;51.580;5.170;2024-01-30T08:45:26;14.90;99.90
47382;DHT22;33128;51.580;5.170;2024-01-30T08:47:52;14.90;99.90
47382;DHT22;33128;51.580;5.170;2024-01-30T08:50:20;15.00;99.90
47382;DHT22;33128;51.580;5.170;2024-01-30T08:52:45;15.00;99.90
47382;DHT22;33128;51.580;5.170;2024-01-30T08:55:11;15.00;99.90
47382;DHT22;33128;51.580;5.170;2024-01-30T08:57:37;15.00;99.90
47382;DHT22;33128;51.580;5.170;2024-01-30T09:00:02;15.10;99.90
47382;DHT22;33128;51.580;5.170;2024-01-30T09:02:32;15.10;99.90
47382;DHT22;33128;51.580;5.170;2024-01-30T09:04:57;15.10;99.90
47382;DHT22;33128;51.580;5.170;2024-01-30T09:07:23;15.10;99.90
47382;DHT22;33128;51.580;5.170;2024-01-30T09:09:49;15.20;99.90
47382;DHT22;33128;51.580;5.170;2024-01-30T09:12:14;15.10;99.90
47382;DHT22;33128;51.580;5.170;2024-01-30T09:14:40;15.20;99.90
47382;DHT22;33128;51.580;5.170;2024-01-30T09:17:08;15.20;99.90
47382;DHT22;33128;51.580;5.170;2024-01-30T09:19:34;15.30;99.90
47382;DHT22;33128;51.580;5.170;2024-01-30T09:22:00;15.30;99.90
47382;DHT22;33128;51.580;5.170;2024-01-30T09:24:31;15.30;99.90
47382;DHT22;33128;51.580;5.170;2024-01-30T09:26:56;15.30;99.90
47382;DHT22;33128;51.580;5.170;2024-01-30T09:29:22;15.30;99.90
47382;DHT22;33128;51.580;5.170;2024-01-30T09:31:47;15.20;99.90
47382;DHT22;33128;51.580;5.170;2024-01-30T09:34:13;15.30;99.90
47382;DHT22;33128;51.580;5.170;2024-01-30T09:36:39;15.20;99.90
47382;DHT22;33128;51.580;5.170;2024-01-30T09:39:05;15.20;99.90
47382;DHT22;33128;51.580;5.170;2024-01-30T09:41:33;15.20;99.90
47382;DHT22;33128;51.580;5.170;2024-01-30T09:44:00;15.20;99.90
47382;DHT22;33128;51.580;5.170;2024-01-30T09:46:28;15.20;99.90
47382;DHT22;33128;51.580;5.170;2024-01-30T09:48:57;15.30;99.90
47382;DHT22;33128;51.580;5.170;2024-01-30T09:51:24;15.30;99.90
47382;DHT22;33128;51.580;5.170;2024-01-30T09:53:50;15.30;99.90
47382;DHT22;33128;51.580;5.170;2024-01-30T09:56:16;15.30;99.90
47382;DHT22;33128;51.580;5.170;2024-01-30T09:58:42;15.30;99.90
47382;DHT22;33128;51.580;5.170;2024-01-30T10:01:08;15.30;99.90
47382;DHT22;33128;51.580;5.170;2024-01-30T10:03:33;15.30;99.90
47382;DHT22;33128;51.580;5.170;2024-01-30T10:06:00;15.30;99.90
47382;DHT22;33128;51.580;5.170;2024-01-30T10:08:26;15.30;99.90
47382;DHT22;33128;51.580;5.170;2024-01-30T10:10:52;15.30;99.90
47382;DHT22;33128;51.580;5.170;2024-01-30T10:13:18;15.40;99.90
47382;DHT22;33128;51.580;5.170;2024-01-30T10:15:48;15.40;99.90
47382;DHT22;33128;51.580;5.170;2024-01-30T10:18:13;15.40;99.90
47382;DHT22;33128;51.580;5.170;2024-01-30T10:20:39;15.40;99.90
47382;DHT22;33128;51.580;5.170;2024-01-30T10:23:05;15.40;99.90
47382;DHT22;33128;51.580;5.170;2024-01-30T10:25:33;15.50;99.90
47382;DHT22;33128;51.580;5.170;2024-01-30T10:27:59;15.50;99.90
47382;DHT22;33128;51.580;5.170;2024-01-30T10:30:25;15.50;99.90
47382;DHT22;33128;51.580;5.170;2024-01-30T10:32:50;15.60;99.90
47382;DHT22;33128;51.580;5.170;2024-01-30T10:35:17;15.70;99.90
47382;DHT22;33128;51.580;5.170;2024-01-30T10:37:47;15.80;99.90
47382;DHT22;33128;51.580;5.170;2024-01-30T10:40:14;15.70;99.90
47382;DHT22;33128;51.580;5.170;2024-01-30T10:42:45;15.70;99.90
47382;DHT22;33128;51.580;5.170;2024-01-30T10:45:12;15.70;99.90
47382;DHT22;33128;51.580;5.170;2024-01-30T10:47:49;15.80;99.90
47382;DHT22;33128;51.580;5.170;2024-01-30T10:50:18;15.80;99.90
47382;DHT22;33128;51.580;5.170;2024-01-30T10:52:45;15.80;99.90
47382;DHT22;33128;51.580;5.170;2024-01-30T10:55:11;15.80;99.90
47382;DHT22;33128;51.580;5.170;2024-01-30T10:57:39;15.80;99.90
47382;DHT22;33128;51.580;5.170;2024-01-30T11:00:13;15.90;99.90
47382;DHT22;33128;51.580;5.170;2024-01-30T11:02:44;15.90;99.90
47382;DHT22;33128;51.580;5.170;2024-01-30T11:05:11;15.90;99.90
47382;DHT22;33128;51.580;5.170;2024-01-30T11:07:40;15.90;99.90
47382;DHT22;33128;51.580;5.170;2024-01-30T11:10:07;16.00;99.90
47382;DHT22;33128;51.580;5.170;2024-01-30T11:12:38;16.10;99.90
47382;DHT22;33128;51.580;5.170;2024-01-30T11:15:11;16.20;99.90
47382;DHT22;33128;51.580;5.170;2024-01-30T11:17:44;16.20;99.90
47382;DHT22;33128;51.580;5.170;2024-01-30T11:22:50;16.20;99.90
47382;DHT22;33128;51.580;5.170;2024-01-30T11:25:17;16.20;99.90
47382;DHT22;33128;51.580;5.170;2024-01-30T11:27:45;16.20;99.90
47382;DHT22;33128;51.580;5.170;2024-01-30T11:30:21;16.10;99.90
47382;DHT22;33128;51.580;5.170;2024-01-30T11:33:04;16.10;99.90
47382;DHT22;33128;51.580;5.170;2024-01-30T11:35:37;16.10;99.90
47382;DHT22;33128;51.580;5.170;2024-01-30T11:38:07;16.00;99.90
47382;DHT22;33128;51.580;5.170;2024-01-30T11:40:34;16.10;99.90
47382;DHT22;33128;51.580;5.170;2024-01-30T11:43:01;16.20;99.90
47382;DHT22;33128;51.580;5.170;2024-01-30T11:45:28;16.30;99.90
47382;DHT22;33128;51.580;5.170;2024-01-30T11:47:55;16.30;99.90
47382;DHT22;33128;51.580;5.170;2024-01-30T11:50:21;16.40;99.90
47382;DHT22;33128;51.580;5.170;2024-01-30T11:52:48;16.40;99.90
47382;DHT22;33128;51.580;5.170;2024-01-30T11:55:14;16.40;99.90
47382;DHT22;33128;51.580;5.170;2024-01-30T11:57:40;16.40;99.90
47382;DHT22;33128;51.580;5.170;2024-01-30T12:00:13;16.40;99.90
47382;DHT22;33128;51.580;5.170;2024-01-30T12:02:39;16.40;99.90
47382;DHT22;33128;51.580;5.170;2024-01-30T12:05:06;16.40;99.90
47382;DHT22;33128;51.580;5.170;2024-01-30T12:07:32;16.70;99.90
47382;DHT22;33128;51.580;5.170;2024-01-30T12:09:58;17.00;99.90
47382;DHT22;33128;51.580;5.170;2024-01-30T12:12:27;17.40;99.90
47382;DHT22;33128;51.580;5.170;2024-01-30T12:14:53;17.70;99.90
47382;DHT22;33128;51.580;5.170;2024-01-30T12:17:29;17.90;99.90
47382;DHT22;33128;51.580;5.170;2024-01-30T12:20:15;18.10;99.90
47382;DHT22;33128;51.580;5.170;2024-01-30T12:22:44;18.20;99.90
47382;DHT22;33128;51.580;5.170;2024-01-30T12:25:12;18.10;99.90
47382;DHT22;33128;51.580;5.170;2024-01-30T12:27:39;18.00;99.90
47382;DHT22;33128;51.580;5.170;2024-01-30T12:30:08;17.80;99.90
47382;DHT22;33128;51.580;5.170;2024-01-30T12:32:42;17.60;99.90
47382;DHT22;33128;51.580;5.170;2024-01-30T12:35:15;17.40;99.90
47382;DHT22;33128;51.580;5.170;2024-01-30T12:37:43;17.20;99.90
47382;DHT22;33128;51.580;5.170;2024-01-30T12:40:09;17.10;99.90
47382;DHT22;33128;51.580;5.170;2024-01-30T12:42:35;17.00;99.90
47382;DHT22;33128;51.580;5.170;2024-01-30T12:45:04;16.80;99.90
47382;DHT22;33128;51.580;5.170;2024-01-30T12:47:33;16.70;99.90
47382;DHT22;33128;51.580;5.170;2024-01-30T12:49:59;16.60;99.90
47382;DHT22;33128;51.580;5.170;2024-01-30T12:52:25;16.60;99.90
47382;DHT22;33128;51.580;5.170;2024-01-30T12:54:51;16.60;99.90
47382;DHT22;33128;51.580;5.170;2024-01-30T12:57:17;16.70;99.90
47382;DHT22;33128;51.580;5.170;2024-01-30T12:59:44;16.80;99.90
47382;DHT22;33128;51.580;5.170;2024-01-30T13:02:10;16.80;99.90
47382;DHT22;33128;51.580;5.170;2024-01-30T13:04:36;16.70;99.90
47382;DHT22;33128;51.580;5.170;2024-01-30T13:07:02;16.70;99.90
47382;DHT22;33128;51.580;5.170;2024-01-30T13:09:32;16.60;99.90
47382;DHT22;33128;51.580;5.170;2024-01-30T13:11:58;16.50;99.90
47382;DHT22;33128;51.580;5.170;2024-01-30T13:14:31;16.40;99.90
47382;DHT22;33128;51.580;5.170;2024-01-30T13:16:56;16.30;99.90
47382;DHT22;33128;51.580;5.170;2024-01-30T13:19:22;16.30;99.90
47382;DHT22;33128;51.580;5.170;2024-01-30T13:21:48;16.20;99.90
47382;DHT22;33128;51.580;5.170;2024-01-30T13:24:26;16.10;99.90
47382;DHT22;33128;51.580;5.170;2024-01-30T13:26:52;16.00;99.90
47382;DHT22;33128;51.580;5.170;2024-01-30T13:29:18;15.90;99.90
47382;DHT22;33128;51.580;5.170;2024-01-30T13:31:44;15.90;99.90
47382;DHT22;33128;51.580;5.170;2024-01-30T13:34:11;15.90;99.90
47382;DHT22;33128;51.580;5.170;2024-01-30T13:36:38;15.90;99.90
47382;DHT22;33128;51.580;5.170;2024-01-30T13:39:04;15.80;99.90
47382;DHT22;33128;51.580;5.170;2024-01-30T13:41:33;15.80;99.90
47382;DHT22;33128;51.580;5.170;2024-01-30T13:43:58;15.90;99.90
47382;DHT22;33128;51.580;5.170;2024-01-30T13:46:24;15.90;99.90
47382;DHT22;33128;51.580;5.170;2024-01-30T13:48:50;15.80;99.90
47382;DHT22;33128;51.580;5.170;2024-01-30T13:51:16;15.80;99.90
47382;DHT22;33128;51.580;5.170;2024-01-30T13:53:42;15.80;99.90
47382;DHT22;33128;51.580;5.170;2024-01-30T13:56:08;15.70;99.90
47382;DHT22;33128;51.580;5.170;2024-01-30T13:58:33;15.70;99.90
47382;DHT22;33128;51.580;5.170;2024-01-30T14:01:01;15.70;99.90
47382;DHT22;33128;51.580;5.170;2024-01-30T14:03:27;15.60;99.90
47382;DHT22;33128;51.580;5.170;2024-01-30T14:05:53;15.60;99.90
47382;DHT22;33128;51.580;5.170;2024-01-30T14:08:21;15.50;99.90
47382;DHT22;33128;51.580;5.170;2024-01-30T14:10:49;15.50;99.90
47382;DHT22;33128;51.580;5.170;2024-01-30T14:13:14;15.50;99.90
47382;DHT22;33128;51.580;5.170;2024-01-30T14:15:40;15.50;99.90
47382;DHT22;33128;51.580;5.170;2024-01-30T14:18:06;15.50;99.90
47382;DHT22;33128;51.580;5.170;2024-01-30T14:20:33;15.40;99.90
47382;DHT22;33128;51.580;5.170;2024-01-30T14:22:59;15.40;99.90
47382;DHT22;33128;51.580;5.170;2024-01-30T14:25:25;15.40;99.90
47382;DHT22;33128;51.580;5.170;2024-01-30T14:27:51;15.40;99.90
47382;DHT22;33128;51.580;5.170;2024-01-30T14:30:17;15.40;99.90
47382;DHT22;33128;51.580;5.170;2024-01-30T14:32:43;15.30;99.90
47382;DHT22;33128;51.580;5.170;2024-01-30T14:35:10;15.30;99.90
47382;DHT22;33128;51.580;5.170;2024-01-30T14:37:37;15.30;99.90
47382;DHT22;33128;51.580;5.170;2024-01-30T14:40:03;15.30;99.90
47382;DHT22;33128;51.580;5.170;2024-01-30T14:42:29;15.30;99.90
47382;DHT22;33128;51.580;5.170;2024-01-30T14:44:57;15.30;99.90
47382;DHT22;33128;51.580;5.170;2024-01-30T14:47:24;15.30;99.90
47382;DHT22;33128;51.580;5.170;2024-01-30T14:49:49;15.20;99.90
47382;DHT22;33128;51.580;5.170;2024-01-30T14:52:15;15.20;99.90
47382;DHT22;33128;51.580;5.170;2024-01-30T14:54:40;15.20;99.90
47382;DHT22;33128;51.580;5.170;2024-01-30T14:57:06;15.20;99.90
47382;DHT22;33128;51.580;5.170;2024-01-30T14:59:32;15.20;99.90
47382;DHT22;33128;51.580;5.170;2024-01-30T15:01:59;15.30;99.90
47382;DHT22;33128;51.580;5.170;2024-01-30T15:04:25;15.30;99.90
47382;DHT22;33128;51.580;5.170;2024-01-30T15:06:50;15.30;99.90
47382;DHT22;33128;51.580;5.170;2024-01-30T15:09:16;15.30;99.90
47382;DHT22;33128;51.580;5.170;2024-01-30T15:11:43;15.30;99.90
47382;DHT22;33128;51.580;5.170;2024-01-30T15:14:15;15.40;99.90
47382;DHT22;33128;51.580;5.170;2024-01-30T15:16:41;15.40;99.90
47382;DHT22;33128;51.580;5.170;2024-01-30T15:19:07;15.30;99.90
47382;DHT22;33128;51.580;5.170;2024-01-30T15:21:42;15.40;99.90
47382;DHT22;33128;51.580;5.170;2024-01-30T15:24:07;15.30;99.90
47382;DHT22;33128;51.580;5.170;2024-01-30T15:26:33;15.30;99.90
47382;DHT22;33128;51.580;5.170;2024-01-30T15:28:59;15.30;99.90
47382;DHT22;33128;51.580;5.170;2024-01-30T15:31:24;15.30;99.90
47382;DHT22;33128;51.580;5.170;2024-01-30T15:33:50;15.20;99.90